Time;durP1;ratioP1;P1;durP2;ratioP2;P2;SDS_P1;SDS_P2;PMS_P1;PMS_P2;Temp;Humidity;BMP_temperature;BMP_pressure;BME280_temperature;BME280_humidity;BME280_pressure;Samples;Min_cycle;Max_cycle;Signal;HPM_P1;HPM_P2
2022/10/05 00:01:21;;;;;;;;;;;23.80;38.50;;;;;;487136;245;1095;-75
2022/10/05 00:03:23;;;;;;;;;;;23.80;38.50;;;;;;486958;245;1076;-75
2022/10/05 00:05:24;;;;;;;;;;;23.70;38.50;;;;;;487100;245;1400;-75
2022/10/05 00:07:25;;;;;;;;;;;23.60;38.70;;;;;;487065;244;1201;-75
2022/10/05 00:09:27;;;;;;;;;;;23.60;38.70;;;;;;486995;245;1132;-75
2022/10/05 00:11:28;;;;;;;;;;;23.70;38.70;;;;;;486969;245;1185;-75
2022/10/05 00:13:29;;;;;;;;;;;23.60;38.70;;;;;;486942;245;1150;-75
2022/10/05 00:15:31;;;;;;;;;;;23.60;38.60;;;;;;486988;245;1153;-75
2022/10/05 00:17:32;;;;;;;;;;;23.60;38.60;;;;;;487026;244;2250;-75
2022/10/05 00:19:33;;;;;;;;;;;23.60;38.60;;;;;;486956;245;1183;-75
2022/10/05 00:21:35;;;;;;;;;;;23.60;38.50;;;;;;486985;245;1279;-75
2022/10/05 00:23:36;;;;;;;;;;;23.60;38.60;;;;;;487085;245;1126;-75
2022/10/05 00:25:38;;;;;;;;;;;23.60;38.60;;;;;;486949;245;1206;-75
2022/10/05 00:27:39;;;;;;;;;;;23.50;38.60;;;;;;486842;245;1172;-75
2022/10/05 00:29:40;;;;;;;;;;;23.60;38.60;;;;;;486975;245;1166;-75
2022/10/05 00:31:42;;;;;;;;;;;23.60;38.60;;;;;;486937;245;1094;-75
2022/10/05 00:33:43;;;;;;;;;;;23.50;38.70;;;;;;486828;245;1154;-75
2022/10/05 00:35:45;;;;;;;;;;;23.60;38.40;;;;;;486937;245;1221;-75
2022/10/05 00:37:46;;;;;;;;;;;23.70;38.20;;;;;;486968;245;2193;-75
2022/10/05 00:39:47;;;;;;;;;;;23.90;38.20;;;;;;487085;245;1197;-75
2022/10/05 00:41:50;;;;;;;;;;;23.90;37.80;;;;;;487148;244;1200;-75
2022/10/05 00:43:51;;;;;;;;;;;24.00;37.80;;;;;;487037;245;1210;-75
2022/10/05 00:45:52;;;;;;;;;;;24.00;37.80;;;;;;486990;244;1264;-75
2022/10/05 00:47:54;;;;;;;;;;;24.10;37.70;;;;;;487092;245;1440;-75
2022/10/05 00:49:55;;;;;;;;;;;24.10;37.70;;;;;;487057;245;1291;-75
2022/10/05 00:51:57;;;;;;;;;;;24.10;37.70;;;;;;487092;245;1149;-75
2022/10/05 00:53:58;;;;;;;;;;;24.00;37.90;;;;;;487061;244;1351;-75
2022/10/05 00:55:59;;;;;;;;;;;24.00;38.00;;;;;;487157;245;1270;-75
2022/10/05 00:58:01;;;;;;;;;;;23.80;38.10;;;;;;487077;245;2178;-75
2022/10/05 01:00:02;;;;;;;;;;;23.80;38.10;;;;;;487168;245;1331;-75
2022/10/05 01:02:03;;;;;;;;;;;23.80;38.30;;;;;;487086;245;1224;-75
2022/10/05 01:04:05;;;;;;;;;;;23.80;38.20;;;;;;486994;244;1167;-75
2022/10/05 01:06:06;;;;;;;;;;;23.80;38.20;;;;;;487111;245;1240;-75
2022/10/05 01:08:07;;;;;;;;;;;23.70;38.20;;;;;;487069;245;1211;-75
2022/10/05 01:10:09;;;;;;;;;;;23.70;38.30;;;;;;487133;245;1175;-75
2022/10/05 01:12:10;;;;;;;;;;;23.70;38.20;;;;;;487055;245;1398;-75
2022/10/05 01:14:11;;;;;;;;;;;23.60;38.30;;;;;;487028;244;1177;-75
2022/10/05 01:16:13;;;;;;;;;;;23.60;38.40;;;;;;487078;245;2167;-75
2022/10/05 01:18:14;;;;;;;;;;;23.60;38.40;;;;;;487077;245;1144;-75
2022/10/05 01:20:16;;;;;;;;;;;23.50;38.40;;;;;;487131;245;1145;-75
2022/10/05 01:22:17;;;;;;;;;;;23.60;38.40;;;;;;487144;244;1141;-75
2022/10/05 01:24:18;;;;;;;;;;;23.60;38.30;;;;;;487129;245;1153;-75
2022/10/05 01:26:20;;;;;;;;;;;23.60;38.40;;;;;;487107;244;1174;-75
2022/10/05 01:28:21;;;;;;;;;;;23.50;38.30;;;;;;487103;245;1333;-75
2022/10/05 01:30:22;;;;;;;;;;;23.50;38.50;;;;;;487112;245;1118;-75
2022/10/05 01:32:24;;;;;;;;;;;23.60;38.40;;;;;;487150;244;1099;-75
2022/10/05 01:34:25;;;;;;;;;;;23.70;38.10;;;;;;487006;245;1372;-75
2022/10/05 01:36:26;;;;;;;;;;;23.80;37.90;;;;;;487232;244;2195;-75
2022/10/05 01:38:28;;;;;;;;;;;23.80;37.90;;;;;;487267;244;1163;-75
2022/10/05 01:40:30;;;;;;;;;;;23.90;37.90;;;;;;487236;245;1117;-75
2022/10/05 01:42:31;;;;;;;;;;;23.90;37.80;;;;;;487203;245;1128;-75
2022/10/05 01:44:32;;;;;;;;;;;24.00;37.70;;;;;;487182;244;1194;-75
2022/10/05 01:46:33;;;;;;;;;;;24.00;37.70;;;;;;487161;245;1193;-75
2022/10/05 01:48:35;;;;;;;;;;;23.90;37.80;;;;;;487155;244;1408;-75
2022/10/05 01:50:36;;;;;;;;;;;23.90;37.90;;;;;;487131;245;1174;-75
2022/10/05 01:52:37;;;;;;;;;;;23.80;37.90;;;;;;487189;244;1052;-75
2022/10/05 01:54:39;;;;;;;;;;;23.80;37.90;;;;;;487196;245;1329;-75
2022/10/05 01:56:40;;;;;;;;;;;23.80;37.90;;;;;;487176;244;2186;-75
2022/10/05 01:58:41;;;;;;;;;;;23.80;38.10;;;;;;487145;245;1060;-75
2022/10/05 02:00:43;;;;;;;;;;;23.80;38.00;;;;;;487175;244;1088;-75
2022/10/05 02:02:44;;;;;;;;;;;23.70;38.00;;;;;;487054;245;1194;-75
2022/10/05 02:04:46;;;;;;;;;;;23.70;38.00;;;;;;487127;245;1154;-75
2022/10/05 02:06:47;;;;;;;;;;;23.70;38.10;;;;;;487172;244;1130;-75
2022/10/05 02:08:48;;;;;;;;;;;23.70;38.20;;;;;;487109;245;1200;-75
2022/10/05 02:10:50;;;;;;;;;;;23.70;38.20;;;;;;487104;245;1126;-74
2022/10/05 02:12:51;;;;;;;;;;;23.70;38.10;;;;;;487142;244;1135;-74
2022/10/05 02:14:52;;;;;;;;;;;23.60;38.20;;;;;;487159;245;1187;-75
2022/10/05 02:16:54;;;;;;;;;;;23.60;38.30;;;;;;487097;245;2202;-75
2022/10/05 02:18:55;;;;;;;;;;;23.60;38.30;;;;;;487037;245;1200;-75
2022/10/05 02:20:56;;;;;;;;;;;23.60;38.20;;;;;;487134;245;1103;-75
2022/10/05 02:22:58;;;;;;;;;;;23.60;38.30;;;;;;487170;245;1074;-75
2022/10/05 02:24:59;;;;;;;;;;;23.60;38.30;;;;;;487155;244;1169;-75
2022/10/05 02:27:00;;;;;;;;;;;23.60;38.20;;;;;;487208;245;1166;-75
2022/10/05 02:29:02;;;;;;;;;;;23.60;38.30;;;;;;487174;244;1146;-75
2022/10/05 02:31:03;;;;;;;;;;;23.70;38.20;;;;;;487166;245;1025;-75
2022/10/05 02:33:05;;;;;;;;;;;23.70;37.90;;;;;;486976;245;1057;-75
2022/10/05 02:35:06;;;;;;;;;;;23.80;37.90;;;;;;487166;245;1030;-75
2022/10/05 02:37:08;;;;;;;;;;;23.90;37.80;;;;;;487157;245;2186;-75
2022/10/05 02:39:09;;;;;;;;;;;24.00;37.60;;;;;;487125;245;1271;-75
2022/10/05 02:41:10;;;;;;;;;;;24.00;37.60;;;;;;487178;245;1077;-75
2022/10/05 02:43:12;;;;;;;;;;;24.00;37.50;;;;;;487170;245;1152;-75
2022/10/05 02:45:13;;;;;;;;;;;24.10;37.40;;;;;;487199;245;1155;-75
2022/10/05 02:47:14;;;;;;;;;;;24.20;37.50;;;;;;487141;245;1134;-75
2022/10/05 02:49:18;;;;;;;;;;;24.00;37.50;;;;;;487168;244;1115;-75
2022/10/05 02:51:19;;;;;;;;;;;23.90;37.60;;;;;;487078;245;1273;-75
2022/10/05 02:53:21;;;;;;;;;;;23.90;37.70;;;;;;487117;245;1177;-75
2022/10/05 02:55:22;;;;;;;;;;;23.90;37.80;;;;;;487120;245;1226;-75
2022/10/05 02:57:24;;;;;;;;;;;23.80;37.90;;;;;;487137;245;2186;-75
2022/10/05 02:59:25;;;;;;;;;;;23.70;37.90;;;;;;487127;245;1115;-75
2022/10/05 03:01:26;;;;;;;;;;;23.70;37.90;;;;;;487093;245;1113;-75
2022/10/05 03:03:28;;;;;;;;;;;23.70;37.90;;;;;;486930;245;1196;-75
2022/10/05 03:05:30;;;;;;;;;;;23.60;38.00;;;;;;487132;245;1147;-75
2022/10/05 03:07:31;;;;;;;;;;;23.60;38.10;;;;;;487121;245;1246;-75
2022/10/05 03:09:33;;;;;;;;;;;23.60;38.00;;;;;;487155;245;1125;-75
2022/10/05 03:11:34;;;;;;;;;;;23.60;38.00;;;;;;487123;244;1224;-75
2022/10/05 03:13:35;;;;;;;;;;;23.60;38.00;;;;;;487166;245;1046;-75
2022/10/05 03:15:37;;;;;;;;;;;23.50;38.00;;;;;;487104;245;1095;-75
2022/10/05 03:17:38;;;;;;;;;;;23.50;38.20;;;;;;487147;245;2186;-75
2022/10/05 03:19:39;;;;;;;;;;;23.50;38.20;;;;;;487125;244;1106;-75
2022/10/05 03:21:41;;;;;;;;;;;23.50;38.20;;;;;;487108;245;1158;-75
2022/10/05 03:23:42;;;;;;;;;;;23.50;38.20;;;;;;487141;245;1159;-75
2022/10/05 03:25:44;;;;;;;;;;;23.40;38.20;;;;;;487130;245;1187;-75
2022/10/05 03:27:45;;;;;;;;;;;23.60;38.10;;;;;;487082;245;1343;-75
2022/10/05 03:29:46;;;;;;;;;;;23.70;37.90;;;;;;487139;245;1251;-74
2022/10/05 03:31:48;;;;;;;;;;;23.80;37.60;;;;;;487124;245;1152;-75
2022/10/05 03:33:49;;;;;;;;;;;23.80;37.50;;;;;;487002;245;1124;-75
2022/10/05 03:35:50;;;;;;;;;;;23.90;37.40;;;;;;487170;245;1124;-75
2022/10/05 03:37:52;;;;;;;;;;;24.00;37.40;;;;;;487232;244;2211;-75
2022/10/05 03:39:53;;;;;;;;;;;24.00;37.30;;;;;;487165;245;1096;-75
2022/10/05 03:41:55;;;;;;;;;;;23.80;37.50;;;;;;487160;245;1139;-75
2022/10/05 03:43:56;;;;;;;;;;;23.80;37.40;;;;;;487123;245;1217;-75
2022/10/05 03:45:58;;;;;;;;;;;23.80;37.60;;;;;;487154;245;1172;-75
2022/10/05 03:47:59;;;;;;;;;;;23.70;37.60;;;;;;487215;244;1117;-75
2022/10/05 03:50:00;;;;;;;;;;;23.70;37.60;;;;;;487145;245;1135;-75
2022/10/05 03:52:02;;;;;;;;;;;23.60;37.70;;;;;;487031;245;1079;-75
2022/10/05 03:54:03;;;;;;;;;;;23.70;37.70;;;;;;487179;245;1168;-75
2022/10/05 03:56:04;;;;;;;;;;;23.60;37.80;;;;;;487093;245;1086;-75
2022/10/05 03:58:06;;;;;;;;;;;23.70;37.80;;;;;;487092;245;2167;-75
2022/10/05 04:00:07;;;;;;;;;;;23.60;37.70;;;;;;487033;245;1161;-75
2022/10/05 04:02:09;;;;;;;;;;;23.70;37.70;;;;;;487023;245;1283;-74
2022/10/05 04:04:10;;;;;;;;;;;23.60;37.70;;;;;;487002;245;1110;-75
2022/10/05 04:06:11;;;;;;;;;;;23.60;37.80;;;;;;487101;244;1130;-75
2022/10/05 04:08:13;;;;;;;;;;;23.60;37.80;;;;;;487036;245;1239;-75
2022/10/05 04:10:14;;;;;;;;;;;23.60;37.70;;;;;;487071;245;1152;-75
2022/10/05 04:12:15;;;;;;;;;;;23.70;37.50;;;;;;487122;245;1157;-75
2022/10/05 04:14:17;;;;;;;;;;;23.60;37.70;;;;;;487116;244;1306;-75
2022/10/05 04:16:18;;;;;;;;;;;23.60;37.60;;;;;;487121;245;1113;-75
2022/10/05 04:18:19;;;;;;;;;;;23.60;37.60;;;;;;487081;245;2183;-75
2022/10/05 04:20:21;;;;;;;;;;;23.60;37.60;;;;;;487090;245;1121;-75
2022/10/05 04:22:22;;;;;;;;;;;23.60;37.50;;;;;;487191;244;1092;-75
2022/10/05 04:24:23;;;;;;;;;;;23.60;37.50;;;;;;487087;245;1057;-75
2022/10/05 04:26:25;;;;;;;;;;;23.60;37.50;;;;;;487160;244;1108;-75
2022/10/05 04:28:26;;;;;;;;;;;23.60;37.50;;;;;;487100;245;1205;-75
2022/10/05 04:30:27;;;;;;;;;;;23.60;37.50;;;;;;487084;245;1163;-75
2022/10/05 04:32:29;;;;;;;;;;;23.60;37.40;;;;;;487011;245;1227;-75
2022/10/05 04:34:31;;;;;;;;;;;23.60;37.40;;;;;;486929;245;1105;-75
2022/10/05 04:36:32;;;;;;;;;;;23.50;37.40;;;;;;487140;244;1140;-75
2022/10/05 04:38:33;;;;;;;;;;;23.50;37.40;;;;;;486907;245;2150;-75
2022/10/05 04:40:35;;;;;;;;;;;23.50;37.40;;;;;;487013;244;1143;-75
2022/10/05 04:42:36;;;;;;;;;;;23.60;37.40;;;;;;487059;245;1172;-75
2022/10/05 04:44:37;;;;;;;;;;;23.60;37.40;;;;;;487064;244;1289;-75
2022/10/05 04:46:39;;;;;;;;;;;23.50;37.30;;;;;;487056;245;1165;-75
2022/10/05 04:48:40;;;;;;;;;;;23.50;37.30;;;;;;487113;245;1104;-75
2022/10/05 04:50:41;;;;;;;;;;;23.50;37.30;;;;;;487233;244;1205;-75
2022/10/05 04:52:43;;;;;;;;;;;23.60;37.10;;;;;;487088;245;1114;-75
2022/10/05 04:54:44;;;;;;;;;;;23.80;37.00;;;;;;487083;245;1305;-75
2022/10/05 04:56:45;;;;;;;;;;;23.90;36.70;;;;;;487118;245;1426;-75
2022/10/05 04:58:47;;;;;;;;;;;23.90;36.70;;;;;;487054;245;2191;-75
2022/10/05 05:00:48;;;;;;;;;;;24.00;36.50;;;;;;487048;245;1227;-75
2022/10/05 05:02:50;;;;;;;;;;;24.10;36.50;;;;;;486968;245;1119;-75
2022/10/05 05:04:51;;;;;;;;;;;24.00;36.50;;;;;;487030;245;1214;-75
2022/10/05 05:06:52;;;;;;;;;;;24.00;36.60;;;;;;487094;245;1197;-75
2022/10/05 05:08:56;;;;;;;;;;;24.00;36.60;;;;;;487136;244;1214;-75
2022/10/05 05:10:56;;;;;;;;;;;23.90;36.60;;;;;;487000;245;1881;-75
2022/10/05 05:12:57;;;;;;;;;;;23.80;36.60;;;;;;487106;245;1074;-75
2022/10/05 05:14:58;;;;;;;;;;;23.90;36.70;;;;;;487103;245;1092;-75
2022/10/05 05:17:00;;;;;;;;;;;23.90;36.60;;;;;;487005;245;1254;-75
2022/10/05 05:19:01;;;;;;;;;;;23.80;36.60;;;;;;487111;245;2170;-75
2022/10/05 05:21:02;;;;;;;;;;;23.90;36.60;;;;;;486967;244;1153;-75
2022/10/05 05:23:04;;;;;;;;;;;23.90;36.60;;;;;;486968;245;1267;-75
2022/10/05 05:25:05;;;;;;;;;;;23.90;36.70;;;;;;487083;244;1186;-75
2022/10/05 05:27:06;;;;;;;;;;;23.90;36.70;;;;;;487059;245;1277;-75
2022/10/05 05:29:08;;;;;;;;;;;23.80;36.60;;;;;;487084;244;1239;-75
2022/10/05 05:31:09;;;;;;;;;;;23.80;36.60;;;;;;487028;245;1267;-75
2022/10/05 05:33:10;;;;;;;;;;;23.80;36.60;;;;;;486866;245;1184;-75
2022/10/05 05:35:12;;;;;;;;;;;23.90;36.60;;;;;;487072;245;1190;-75
2022/10/05 05:37:13;;;;;;;;;;;23.90;36.60;;;;;;487007;245;1160;-74
2022/10/05 05:39:14;;;;;;;;;;;23.90;36.60;;;;;;486992;244;2193;-75
2022/10/05 05:41:16;;;;;;;;;;;23.80;36.60;;;;;;486994;245;1293;-75
2022/10/05 05:43:17;;;;;;;;;;;23.80;36.60;;;;;;486942;245;1256;-75
2022/10/05 05:45:18;;;;;;;;;;;23.80;36.70;;;;;;486923;245;1242;-75
2022/10/05 05:47:20;;;;;;;;;;;23.80;36.70;;;;;;486932;245;1307;-75
2022/10/05 05:49:21;;;;;;;;;;;23.80;36.70;;;;;;486874;245;1212;-75
2022/10/05 05:51:22;;;;;;;;;;;23.80;36.60;;;;;;486971;245;1230;-75
2022/10/05 05:53:24;;;;;;;;;;;23.70;36.70;;;;;;486922;245;1194;-75
2022/10/05 05:55:25;;;;;;;;;;;23.80;36.70;;;;;;486990;244;1146;-75
2022/10/05 05:57:26;;;;;;;;;;;23.70;36.60;;;;;;487023;245;1111;-74
2022/10/05 05:59:28;;;;;;;;;;;23.70;36.70;;;;;;487033;244;2124;-74
2022/10/05 06:01:29;;;;;;;;;;;23.80;36.70;;;;;;486813;245;1175;-75
2022/10/05 06:03:30;;;;;;;;;;;23.80;36.70;;;;;;486857;244;1415;-75
2022/10/05 06:05:32;;;;;;;;;;;23.80;36.70;;;;;;486870;244;1427;-75
2022/10/05 06:07:33;;;;;;;;;;;23.80;36.70;;;;;;487096;245;1226;-75
2022/10/05 06:09:34;;;;;;;;;;;23.80;36.70;;;;;;486967;245;1181;-75
2022/10/05 06:11:36;;;;;;;;;;;23.80;36.80;;;;;;486853;245;1299;-75
2022/10/05 06:13:37;;;;;;;;;;;23.70;36.80;;;;;;486781;245;1111;-75
2022/10/05 06:15:38;;;;;;;;;;;23.80;36.90;;;;;;486868;245;1183;-75
2022/10/05 06:17:40;;;;;;;;;;;23.70;36.90;;;;;;486903;245;1081;-75
2022/10/05 06:19:41;;;;;;;;;;;23.70;37.00;;;;;;486551;244;2193;-74
2022/10/05 06:21:42;;;;;;;;;;;23.70;37.10;;;;;;486509;244;1075;-74
2022/10/05 06:23:44;;;;;;;;;;;23.70;37.10;;;;;;486796;245;1103;-74
2022/10/05 06:25:45;;;;;;;;;;;23.70;37.10;;;;;;486683;245;1087;-74
2022/10/05 06:27:46;;;;;;;;;;;23.60;37.20;;;;;;486739;245;1151;-74
2022/10/05 06:29:48;;;;;;;;;;;23.70;37.30;;;;;;486814;244;1181;-74
2022/10/05 06:31:49;;;;;;;;;;;23.70;37.30;;;;;;486778;245;1138;-74
2022/10/05 06:33:50;;;;;;;;;;;23.70;37.30;;;;;;486666;244;1314;-74
2022/10/05 06:35:52;;;;;;;;;;;23.70;37.40;;;;;;486840;245;1128;-75
2022/10/05 06:37:53;;;;;;;;;;;23.70;37.50;;;;;;486674;244;1144;-74
2022/10/05 06:39:54;;;;;;;;;;;23.70;37.50;;;;;;486699;245;2214;-74
2022/10/05 06:41:56;;;;;;;;;;;23.70;37.50;;;;;;486822;244;1172;-75
2022/10/05 06:43:57;;;;;;;;;;;23.70;37.60;;;;;;486712;245;1145;-75
2022/10/05 06:45:58;;;;;;;;;;;23.70;37.70;;;;;;486829;244;1147;-75
2022/10/05 06:48:00;;;;;;;;;;;23.60;37.70;;;;;;486807;245;1216;-75
2022/10/05 06:50:01;;;;;;;;;;;23.60;37.80;;;;;;486736;244;1178;-75
2022/10/05 06:52:02;;;;;;;;;;;23.60;37.80;;;;;;486853;245;1198;-75
2022/10/05 06:54:04;;;;;;;;;;;23.60;37.80;;;;;;486826;245;1106;-75
2022/10/05 06:56:05;;;;;;;;;;;23.60;37.80;;;;;;486798;244;1182;-75
2022/10/05 06:58:07;;;;;;;;;;;23.60;37.80;;;;;;486871;245;2132;-75
2022/10/05 07:00:08;;;;;;;;;;;23.60;37.80;;;;;;486737;244;1088;-75
2022/10/05 07:02:09;;;;;;;;;;;23.60;37.80;;;;;;486696;245;1188;-75
2022/10/05 07:04:11;;;;;;;;;;;23.60;38.00;;;;;;486621;244;1266;-75
2022/10/05 07:06:12;;;;;;;;;;;23.60;38.10;;;;;;486766;245;1207;-75
2022/10/05 07:08:13;;;;;;;;;;;23.60;38.10;;;;;;486676;245;1156;-75
2022/10/05 07:10:15;;;;;;;;;;;23.60;38.20;;;;;;486757;244;1128;-75
2022/10/05 07:12:16;;;;;;;;;;;23.70;38.20;;;;;;486641;245;1164;-75
2022/10/05 07:14:17;;;;;;;;;;;23.60;38.30;;;;;;486688;244;1182;-75
2022/10/05 07:16:19;;;;;;;;;;;23.60;38.30;;;;;;486674;245;1113;-75
2022/10/05 07:18:20;;;;;;;;;;;23.60;38.40;;;;;;486669;244;2159;-75
2022/10/05 07:20:21;;;;;;;;;;;23.60;38.40;;;;;;486661;245;1171;-75
2022/10/05 07:22:23;;;;;;;;;;;23.60;38.60;;;;;;486719;244;1302;-75
2022/10/05 07:24:26;;;;;;;;;;;23.60;38.60;;;;;;486691;245;1135;-75
2022/10/05 07:26:25;;;;;;;;;;;23.60;38.60;;;;;;486621;245;2360;-75
2022/10/05 07:28:27;;;;;;;;;;;23.60;38.70;;;;;;486716;245;1367;-75
2022/10/05 07:30:28;;;;;;;;;;;23.60;38.80;;;;;;486613;245;1316;-75
2022/10/05 07:32:29;;;;;;;;;;;23.60;39.00;;;;;;486305;244;1132;-76
2022/10/05 07:34:31;;;;;;;;;;;23.60;39.00;;;;;;486575;245;1263;-76
2022/10/05 07:38:51;;;;;;;;;;;23.60;39.20;;;;;;486378;245;2157;-76
2022/10/05 07:40:52;;;;;;;;;;;23.60;39.30;;;;;;486459;244;1256;-74
2022/10/05 07:42:55;;;;;;;;;;;23.70;39.30;;;;;;486543;245;1231;-74
2022/10/05 07:44:55;;;;;;;;;;;23.60;39.30;;;;;;486508;245;1401;-74
2022/10/05 07:46:56;;;;;;;;;;;23.60;39.50;;;;;;486569;245;1127;-75
2022/10/05 07:48:58;;;;;;;;;;;23.60;39.70;;;;;;486715;244;1197;-75
2022/10/05 07:50:59;;;;;;;;;;;23.60;39.70;;;;;;486523;245;1927;-75
2022/10/05 07:53:00;;;;;;;;;;;23.60;39.90;;;;;;486612;245;1129;-74
2022/10/05 07:55:02;;;;;;;;;;;23.50;40.00;;;;;;486334;245;1130;-74
2022/10/05 07:57:03;;;;;;;;;;;23.60;39.90;;;;;;486524;245;1218;-74
2022/10/05 07:59:06;;;;;;;;;;;23.70;39.90;;;;;;486682;245;2186;-75
2022/10/05 08:01:06;;;;;;;;;;;23.70;39.80;;;;;;486452;245;1432;-75
2022/10/05 08:03:07;;;;;;;;;;;23.80;39.70;;;;;;486403;245;1428;-75
2022/10/05 08:05:08;;;;;;;;;;;24.00;39.70;;;;;;486537;244;1103;-75
2022/10/05 08:07:10;;;;;;;;;;;24.10;39.80;;;;;;486642;245;1147;-75
2022/10/05 08:09:11;;;;;;;;;;;24.10;39.80;;;;;;486531;245;1085;-75
2022/10/05 08:11:12;;;;;;;;;;;24.10;40.10;;;;;;486493;244;1274;-75
2022/10/05 08:13:14;;;;;;;;;;;24.10;40.20;;;;;;486754;245;1165;-75
2022/10/05 08:15:15;;;;;;;;;;;24.00;40.30;;;;;;486529;244;1144;-75
2022/10/05 08:17:16;;;;;;;;;;;24.00;40.60;;;;;;486484;245;1121;-75
2022/10/05 08:19:18;;;;;;;;;;;24.00;40.70;;;;;;486638;244;2194;-75
2022/10/05 08:21:19;;;;;;;;;;;23.90;40.70;;;;;;486434;245;1306;-75
2022/10/05 08:23:20;;;;;;;;;;;23.90;40.80;;;;;;486642;244;966;-74
2022/10/05 08:25:22;;;;;;;;;;;23.90;40.80;;;;;;486737;245;1524;-75
2022/10/05 08:27:23;;;;;;;;;;;23.90;40.90;;;;;;486610;245;1129;-75
2022/10/05 08:29:24;;;;;;;;;;;23.90;40.90;;;;;;486697;245;1129;-75
2022/10/05 08:31:26;;;;;;;;;;;23.90;40.90;;;;;;486659;245;1178;-75
2022/10/05 08:33:27;;;;;;;;;;;23.90;40.90;;;;;;486514;244;1186;-75
2022/10/05 08:35:31;;;;;;;;;;;23.90;40.90;;;;;;486593;245;1062;-75
2022/10/05 08:37:31;;;;;;;;;;;23.90;41.00;;;;;;486547;245;1442;-75
2022/10/05 08:39:32;;;;;;;;;;;23.90;41.00;;;;;;486587;245;2194;-75
2022/10/05 08:41:33;;;;;;;;;;;23.80;41.00;;;;;;486686;244;1173;-74
2022/10/05 08:43:34;;;;;;;;;;;23.80;41.10;;;;;;486716;244;1093;-75
2022/10/05 08:45:36;;;;;;;;;;;23.80;41.30;;;;;;486444;245;1202;-75
2022/10/05 08:47:37;;;;;;;;;;;23.90;41.30;;;;;;486624;245;1107;-75
2022/10/05 08:49:38;;;;;;;;;;;23.80;41.50;;;;;;486691;245;1280;-75
2022/10/05 08:51:40;;;;;;;;;;;23.90;41.60;;;;;;486552;244;1233;-75
2022/10/05 08:53:41;;;;;;;;;;;23.90;41.50;;;;;;486485;245;1128;-74
2022/10/05 08:55:43;;;;;;;;;;;23.80;41.70;;;;;;486528;244;1134;-75
2022/10/05 08:57:45;;;;;;;;;;;23.80;41.70;;;;;;486681;244;1119;-75
2022/10/05 08:59:45;;;;;;;;;;;23.90;41.70;;;;;;486372;245;2403;-75
2022/10/05 09:01:46;;;;;;;;;;;23.80;41.80;;;;;;486486;244;1121;-74
2022/10/05 09:03:48;;;;;;;;;;;23.80;41.90;;;;;;486426;245;1172;-75
2022/10/05 09:05:49;;;;;;;;;;;23.90;42.00;;;;;;486480;244;1141;-75
2022/10/05 09:07:50;;;;;;;;;;;23.80;42.00;;;;;;486524;245;1082;-75
2022/10/05 09:09:52;;;;;;;;;;;23.80;42.10;;;;;;486536;244;1147;-75
2022/10/05 09:11:53;;;;;;;;;;;23.90;42.00;;;;;;486706;245;1427;-75
2022/10/05 09:13:54;;;;;;;;;;;23.80;42.10;;;;;;486210;244;1116;-75
2022/10/05 09:15:56;;;;;;;;;;;23.90;42.40;;;;;;486354;244;1693;-75
2022/10/05 09:17:57;;;;;;;;;;;23.80;42.30;;;;;;486390;245;1250;-75
2022/10/05 09:19:58;;;;;;;;;;;23.80;42.30;;;;;;486681;245;2194;-75
2022/10/05 09:22:00;;;;;;;;;;;23.80;42.30;;;;;;486553;245;1195;-75
2022/10/05 09:24:01;;;;;;;;;;;23.80;42.40;;;;;;486529;245;1088;-75
2022/10/05 09:26:02;;;;;;;;;;;23.90;42.40;;;;;;486476;245;1173;-75
2022/10/05 09:28:04;;;;;;;;;;;23.80;42.30;;;;;;486531;244;1129;-75
2022/10/05 09:30:05;;;;;;;;;;;23.80;42.30;;;;;;486578;245;1154;-75
2022/10/05 09:32:07;;;;;;;;;;;23.70;42.40;;;;;;486659;244;1118;-75
2022/10/05 09:34:08;;;;;;;;;;;23.80;42.40;;;;;;486385;245;1453;-75
2022/10/05 09:36:09;;;;;;;;;;;23.80;42.40;;;;;;486639;244;1212;-75
2022/10/05 09:38:11;;;;;;;;;;;23.80;42.40;;;;;;486656;245;1100;-74
2022/10/05 09:40:12;;;;;;;;;;;23.80;42.50;;;;;;486728;245;2186;-74
2022/10/05 09:42:13;;;;;;;;;;;23.80;42.80;;;;;;486550;245;1165;-75
2022/10/05 09:44:14;;;;;;;;;;;23.80;42.70;;;;;;486579;245;1153;-75
2022/10/05 09:46:16;;;;;;;;;;;23.80;42.90;;;;;;486585;244;1219;-75
2022/10/05 09:48:17;;;;;;;;;;;23.80;42.90;;;;;;486552;245;1109;-75
2022/10/05 09:50:19;;;;;;;;;;;23.70;43.00;;;;;;486591;245;1164;-75
2022/10/05 09:52:20;;;;;;;;;;;23.80;43.00;;;;;;486589;245;1324;-75
2022/10/05 09:54:21;;;;;;;;;;;23.80;43.00;;;;;;486436;245;1101;-75
2022/10/05 09:56:22;;;;;;;;;;;23.70;43.10;;;;;;486541;244;1166;-75
2022/10/05 09:58:27;;;;;;;;;;;23.80;43.10;;;;;;486498;244;1108;-75
2022/10/05 10:00:25;;;;;;;;;;;23.80;43.20;;;;;;486425;245;2159;-75
2022/10/05 10:02:26;;;;;;;;;;;23.80;43.00;;;;;;486552;245;1147;-75
2022/10/05 10:04:29;;;;;;;;;;;23.80;43.10;;;;;;486580;245;1121;-75
2022/10/05 10:06:30;;;;;;;;;;;23.80;43.30;;;;;;486582;245;1284;-75
2022/10/05 10:08:31;;;;;;;;;;;23.80;43.40;;;;;;486378;244;1145;-75
2022/10/05 10:10:32;;;;;;;;;;;23.80;43.50;;;;;;486406;245;1119;-75
2022/10/05 10:12:34;;;;;;;;;;;23.80;43.50;;;;;;486381;245;1172;-75
2022/10/05 10:14:35;;;;;;;;;;;23.80;43.60;;;;;;486458;244;1501;-75
2022/10/05 10:16:36;;;;;;;;;;;23.70;43.60;;;;;;486558;245;1343;-75
2022/10/05 10:18:38;;;;;;;;;;;23.70;43.70;;;;;;486437;244;1179;-75
2022/10/05 10:20:39;;;;;;;;;;;23.80;43.80;;;;;;486253;244;2201;-75
2022/10/05 10:22:40;;;;;;;;;;;23.80;43.80;;;;;;486483;245;1148;-75
2022/10/05 10:24:42;;;;;;;;;;;23.70;43.80;;;;;;486345;244;1101;-75
2022/10/05 10:26:43;;;;;;;;;;;23.70;44.00;;;;;;486643;245;1233;-75
2022/10/05 10:28:44;;;;;;;;;;;23.70;44.10;;;;;;486649;244;1210;-75
2022/10/05 10:30:46;;;;;;;;;;;23.70;44.10;;;;;;486714;244;1131;-75
2022/10/05 10:32:47;;;;;;;;;;;23.70;44.10;;;;;;486345;245;1180;-75
2022/10/05 10:34:48;;;;;;;;;;;23.80;44.00;;;;;;486444;245;1104;-75
2022/10/05 10:36:50;;;;;;;;;;;23.80;44.00;;;;;;486532;244;1296;-75
2022/10/05 10:38:51;;;;;;;;;;;23.80;44.10;;;;;;486477;244;1159;-75
2022/10/05 10:40:52;;;;;;;;;;;23.80;44.00;;;;;;486545;245;2194;-74
2022/10/05 10:42:54;;;;;;;;;;;23.80;44.10;;;;;;486587;245;1299;-75
2022/10/05 10:44:55;;;;;;;;;;;23.80;44.20;;;;;;486582;245;1143;-75
2022/10/05 10:46:56;;;;;;;;;;;23.70;44.20;;;;;;486550;244;1186;-75
2022/10/05 10:48:58;;;;;;;;;;;23.80;44.30;;;;;;486500;245;1353;-75
2022/10/05 10:50:59;;;;;;;;;;;23.80;44.30;;;;;;486556;244;1158;-75
2022/10/05 10:53:00;;;;;;;;;;;23.70;44.20;;;;;;486573;244;1167;-75
2022/10/05 10:55:03;;;;;;;;;;;23.80;44.40;;;;;;486532;245;1143;-75
2022/10/05 10:57:03;;;;;;;;;;;23.80;44.30;;;;;;486459;245;1398;-75
2022/10/05 10:59:04;;;;;;;;;;;23.80;44.30;;;;;;486461;245;1197;-75
2022/10/05 11:01:06;;;;;;;;;;;23.80;44.30;;;;;;486340;244;2198;-75
2022/10/05 11:03:07;;;;;;;;;;;23.80;44.30;;;;;;486208;245;1160;-75
2022/10/05 11:05:11;;;;;;;;;;;23.70;44.30;;;;;;486293;244;1115;-75
2022/10/05 11:07:10;;;;;;;;;;;23.80;44.40;;;;;;486421;245;1441;-75
2022/10/05 11:09:11;;;;;;;;;;;23.80;44.30;;;;;;486385;245;1149;-75
2022/10/05 11:11:13;;;;;;;;;;;23.70;44.40;;;;;;486369;245;1205;-75
2022/10/05 11:13:14;;;;;;;;;;;23.70;44.50;;;;;;486460;244;1164;-75
2022/10/05 11:15:16;;;;;;;;;;;23.70;44.40;;;;;;486282;244;1335;-75
2022/10/05 11:17:17;;;;;;;;;;;23.70;44.50;;;;;;486410;245;1091;-75
2022/10/05 11:19:20;;;;;;;;;;;23.70;44.50;;;;;;486446;244;1339;-75
2022/10/05 11:21:21;;;;;;;;;;;23.70;44.60;;;;;;486445;245;2178;-75
2022/10/05 11:23:22;;;;;;;;;;;23.70;44.60;;;;;;486500;244;1073;-75
2022/10/05 11:25:23;;;;;;;;;;;23.70;44.70;;;;;;486436;245;1127;-75
2022/10/05 11:27:25;;;;;;;;;;;23.70;44.60;;;;;;486498;245;1223;-75
2022/10/05 11:29:26;;;;;;;;;;;23.70;44.60;;;;;;486508;245;1216;-75
2022/10/05 11:31:28;;;;;;;;;;;23.70;44.60;;;;;;486684;244;1135;-75
2022/10/05 11:33:29;;;;;;;;;;;23.70;44.70;;;;;;486462;245;1168;-74
2022/10/05 11:35:30;;;;;;;;;;;23.70;44.80;;;;;;486565;244;1182;-74
2022/10/05 11:37:31;;;;;;;;;;;23.60;44.80;;;;;;486675;245;1185;-75
2022/10/05 11:39:34;;;;;;;;;;;23.60;44.90;;;;;;486629;244;2147;-74
2022/10/05 11:41:34;;;;;;;;;;;23.60;44.80;;;;;;486630;245;1353;-75
2022/10/05 11:43:36;;;;;;;;;;;23.60;44.80;;;;;;486561;245;1094;-75
2022/10/05 11:45:38;;;;;;;;;;;23.60;44.90;;;;;;486468;244;1103;-75
2022/10/05 11:47:38;;;;;;;;;;;23.60;45.10;;;;;;486587;245;1916;-75
2022/10/05 11:49:40;;;;;;;;;;;23.60;45.10;;;;;;486549;245;1206;-75
2022/10/05 11:51:41;;;;;;;;;;;23.60;45.20;;;;;;486568;245;1153;-75
2022/10/05 11:53:42;;;;;;;;;;;23.50;45.20;;;;;;486569;245;1110;-75
2022/10/05 11:55:44;;;;;;;;;;;23.60;45.30;;;;;;486253;244;1184;-74
2022/10/05 11:57:45;;;;;;;;;;;23.50;45.30;;;;;;486567;245;1134;-75
2022/10/05 11:59:48;;;;;;;;;;;23.60;45.30;;;;;;486042;245;2250;-75